Antonito, CO (81120)

5:24 PM MDT on August 28, 2015 (GMT -0600)
Fox Creek | | Change Station
CLOSE
Current Station
Personal Weather Station
Location: Antonito, CO
Elevation: 8451 ft
Nearby Weather Stations

Elev 8451 ft 37.07 °N, 106.22 °W | Updated 6 minutes ago

Partly Cloudy
Partly Cloudy
79.2 °F
Feels Like 78 °F
N
10.4
Wind Variable Wind from NE

Today
High -- | Low -- °F
--% Chance of Precip.
Yesterday
High -- | Low -- °F
Precip. -- in
6:32 AM 7:39 PM
Waxing Gibbous, 99% visible
Pressure 30.03 in
Visibility 10.0 miles
Clouds Clear
Heat Index 78 °F
Dew Point 36 °F
Humidity 21%
Rainfall 0.00 in
Snow Depth Not available.
UV 4 out of 12
Pollen 9.90 out of 12
Air Quality Not available.
Flu Activity Not available.
METAR KALS 282252Z AUTO VRB06KT 10SM CLR 27/M03 A3030 RMK AO2 SLP168 T02721033
Pressure 30.03 in
Visibility 10.0 miles
Clouds Clear
Heat Index 78 °F
Dew Point 36 °F
Humidity 21%
Rainfall 0.00 in
Snow Depth Not available.
UV 4 out of 12
Pollen 9.90 out of 12
Air Quality Not available.
Flu Activity Not available.
METAR KALS 282252Z AUTO VRB06KT 10SM CLR 27/M03 A3030 RMK AO2 SLP168 T02721033

10-Day Weather Forecast

×

Almanac

Astronomy

Aug. 28, 2015 Rise Set
Actual Time
Civil Twilight
Nautical Twilight
Astronomical Twilight
Moon
Length of Visible Light
Length of Day
Tomorrow will be .
, % of the Moon is Illuminated

Today's Extremes

State Highs State Lows

Community

WunderPhotos

Upload Photos

1,850,530 photos uploaded!

WunderBlogs® & News

Nearby

Air Quality

  Air Quality AQ Index Pollutant
Not available.

Snow Depth

Station Depth Elevation

Earthquake Activity

City Distance Mag. Time & Date
Minimum magnitude displayed is 2.5.

Coastal Water Temperatures

Place Temperature

Stations

Nearby Weather Stations

Station Location Temp. Windchill Dew Point Humidity Wind Precip. Elev Updated Type